Time;durP1;ratioP1;P1;durP2;ratioP2;P2;SDS_P1;SDS_P2;PMS_P1;PMS_P2;Temp;Humidity;BMP_temperature;BMP_pressure;BME280_temperature;BME280_humidity;BME280_pressure;Samples;Min_cycle;Max_cycle;Signal;HPM_P1;HPM_P2
2022/10/20 00:00:21;;;;;;;24.40;16.52;;;6.30;99.90;;;;;;2602649;54;20790;31
2022/10/20 00:02:55;;;;;;;21.37;15.10;;;6.30;99.90;;;;;;2621479;47;20058;31
2022/10/20 00:05:30;;;;;;;21.45;14.85;;;6.20;99.90;;;;;;2603133;54;20034;31
2022/10/20 00:08:04;;;;;;;22.98;15.80;;;6.20;99.90;;;;;;2602904;54;20889;31
2022/10/20 00:10:41;;;;;;;28.45;19.27;;;6.10;99.90;;;;;;2602820;54;20025;31
2022/10/20 00:13:15;;;;;;;26.05;17.35;;;6.00;99.90;;;;;;2602821;54;20030;31
2022/10/20 00:15:51;;;;;;;23.05;14.80;;;6.00;99.90;;;;;;2621737;47;20745;31
2022/10/20 00:18:25;;;;;;;19.90;14.65;;;6.00;99.90;;;;;;2602893;54;20065;31
2022/10/20 00:20:59;;;;;;;26.15;17.23;;;5.90;99.90;;;;;;2602951;54;20026;31
2022/10/20 00:23:34;;;;;;;25.57;17.50;;;5.90;99.90;;;;;;2602895;54;20030;31
2022/10/20 00:26:13;;;;;;;26.83;17.27;;;5.90;99.90;;;;;;2602906;54;20133;31
2022/10/20 00:28:47;;;;;;;34.60;19.77;;;5.90;99.90;;;;;;2602810;54;20867;31
2022/10/20 00:31:22;;;;;;;28.55;17.38;;;5.80;99.90;;;;;;2602919;54;20026;31
2022/10/20 00:33:56;;;;;;;24.40;16.67;;;6.00;99.90;;;;;;2621221;47;20868;31
2022/10/20 00:36:31;;;;;;;26.48;16.23;;;5.70;99.90;;;;;;2621874;47;20632;31
2022/10/20 00:39:06;;;;;;;26.40;16.80;;;6.30;99.90;;;;;;2603817;54;20050;31
2022/10/20 00:41:42;;;;;;;27.27;17.48;;;5.70;99.90;;;;;;2603944;54;20038;31
2022/10/20 00:44:46;;;;;;;22.20;14.88;;;5.70;99.90;;;;;;2603714;54;20033;31
2022/10/20 00:47:22;;;;;;;22.80;14.73;;;5.70;99.90;;;;;;2622541;46;20909;31
2022/10/20 00:49:56;;;;;;;21.90;15.18;;;5.60;99.90;;;;;;2621442;46;20026;31
2022/10/20 00:52:30;;;;;;;23.02;16.02;;;5.60;99.90;;;;;;2603575;54;20911;31
2022/10/20 00:55:07;;;;;;;28.30;16.13;;;5.50;99.90;;;;;;2603635;54;20868;31
2022/10/20 00:57:44;;;;;;;20.95;13.57;;;5.50;99.90;;;;;;2603737;54;20792;31
2022/10/20 01:00:19;;;;;;;24.77;16.90;;;5.90;99.90;;;;;;2603540;54;20033;31
2022/10/20 01:02:54;;;;;;;24.67;14.60;;;5.30;99.90;;;;;;2603410;54;20229;31
2022/10/20 01:05:28;;;;;;;21.15;14.00;;;5.30;99.90;;;;;;2603557;54;20026;31
2022/10/20 01:08:02;;;;;;;27.45;18.30;;;5.30;99.90;;;;;;2603418;54;20050;31
2022/10/20 01:10:39;;;;;;;23.95;15.40;;;5.50;99.90;;;;;;2603364;54;20589;31
2022/10/20 01:13:17;;;;;;;21.77;15.13;;;5.20;99.90;;;;;;2603665;54;20026;31
2022/10/20 01:15:54;;;;;;;27.08;16.30;;;5.20;99.90;;;;;;2622423;46;20894;31
2022/10/20 01:18:31;;;;;;;21.27;12.30;;;5.20;99.90;;;;;;2603425;54;20033;31
2022/10/20 01:21:30;;;;;;;21.98;14.05;;;5.30;99.90;;;;;;2622397;46;20896;31
2022/10/20 01:24:32;;;;;;;21.65;12.55;;;5.10;99.90;;;;;;2702219;39;20493;31
2022/10/20 01:27:26;;;;;;;18.60;12.50;;;5.10;99.90;;;;;;2603422;54;20026;31
2022/10/20 01:32:36;;;;;;;17.77;11.40;;;5.00;99.90;;;;;;2621547;46;20060;31
2022/10/20 01:35:13;;;;;;;18.10;10.20;;;5.00;99.90;;;;;;2622068;46;20033;31
2022/10/20 01:37:50;;;;;;;31.20;17.75;;;5.00;99.90;;;;;;2622379;46;20044;31
2022/10/20 01:40:29;;;;;;;29.00;15.93;;;5.40;99.90;;;;;;2603429;54;20030;31
2022/10/20 01:43:06;;;;;;;24.13;14.45;;;5.00;99.90;;;;;;2603724;54;20901;31
2022/10/20 01:45:42;;;;;;;18.05;10.05;;;5.20;99.90;;;;;;2621933;46;20053;31
2022/10/20 01:48:16;;;;;;;17.88;10.85;;;5.40;99.90;;;;;;2603689;54;20126;31
2022/10/20 01:50:50;;;;;;;15.40;9.40;;;4.90;99.90;;;;;;2603566;54;20587;31
2022/10/20 01:53:25;;;;;;;29.60;16.05;;;4.90;99.90;;;;;;2603349;54;20894;31
2022/10/20 01:56:00;;;;;;;15.52;10.10;;;4.90;99.90;;;;;;2621902;46;20037;31
2022/10/20 01:58:59;;;;;;;12.65;8.93;;;4.70;99.90;;;;;;2603694;54;20037;31
2022/10/20 02:01:40;;;;;;;14.90;8.55;;;4.80;99.90;;;;;;2603434;54;20030;31
2022/10/20 02:04:14;;;;;;;15.50;8.90;;;4.70;99.90;;;;;;2603453;54;20890;31
2022/10/20 02:06:51;;;;;;;12.95;7.82;;;5.50;99.90;;;;;;2603568;54;20048;31
2022/10/20 02:09:28;;;;;;;11.98;8.30;;;4.60;99.90;;;;;;2603452;54;20741;31
2022/10/20 02:12:04;;;;;;;12.55;7.50;;;4.90;99.90;;;;;;2603514;54;20930;31
2022/10/20 02:14:41;;;;;;;14.00;8.23;;;4.80;99.90;;;;;;2603132;54;20565;31
2022/10/20 02:17:16;;;;;;;15.40;10.05;;;4.80;99.90;;;;;;2603274;54;20821;31
2022/10/20 02:19:51;;;;;;;14.23;9.93;;;4.50;99.90;;;;;;2773221;31;20541;31
2022/10/20 02:22:26;;;;;;;13.50;8.57;;;4.50;99.90;;;;;;2603332;54;20049;31
2022/10/20 02:25:00;;;;;;;14.85;9.30;;;4.50;99.90;;;;;;2603419;54;20817;31
2022/10/20 02:27:35;;;;;;;13.43;8.65;;;4.60;99.90;;;;;;2603492;54;20033;31
2022/10/20 02:30:14;;;;;;;12.40;7.50;;;4.40;99.90;;;;;;2603507;54;20897;31
2022/10/20 02:32:53;;;;;;;12.07;7.10;;;4.40;99.90;;;;;;2603391;54;20844;31
2022/10/20 02:35:30;;;;;;;13.60;7.65;;;4.60;99.90;;;;;;2603266;54;20806;31
2022/10/20 02:38:04;;;;;;;12.95;8.45;;;4.70;99.90;;;;;;2603490;54;20026;31
2022/10/20 02:40:38;;;;;;;13.13;8.52;;;5.10;99.90;;;;;;2603503;54;20910;31
2022/10/20 02:43:12;;;;;;;14.35;9.55;;;4.40;99.90;;;;;;2603349;54;20839;31
2022/10/20 02:45:49;;;;;;;14.05;8.85;;;4.30;99.90;;;;;;2603460;54;20565;31
2022/10/20 02:48:23;;;;;;;14.15;8.82;;;4.80;99.90;;;;;;2622105;46;20932;31
2022/10/20 02:50:57;;;;;;;12.18;7.20;;;4.50;99.90;;;;;;2603424;54;20027;31
2022/10/20 02:53:29;;;;;;;13.68;7.60;;;4.50;99.90;;;;;;2701910;39;21058;31
2022/10/20 02:56:03;;;;;;;12.73;7.82;;;4.10;99.90;;;;;;2603553;54;20541;31
2022/10/20 02:58:37;;;;;;;18.50;10.55;;;4.10;99.90;;;;;;2621744;46;20031;31
2022/10/20 03:01:14;;;;;;;20.55;11.02;;;4.10;99.90;;;;;;2621481;46;20966;31
2022/10/20 03:03:48;;;;;;;16.25;11.25;;;4.80;99.90;;;;;;2603085;54;20893;31
2022/10/20 03:06:22;;;;;;;18.13;12.30;;;4.50;99.90;;;;;;2603247;54;20022;31
2022/10/20 03:08:59;;;;;;;12.38;8.88;;;4.10;99.90;;;;;;2603139;54;20895;31
2022/10/20 03:11:34;;;;;;;12.93;8.13;;;3.60;99.90;;;;;;2603156;54;20030;31
2022/10/20 03:14:07;;;;;;;17.33;9.02;;;4.70;99.90;;;;;;2603377;54;20026;31
2022/10/20 03:16:44;;;;;;;18.60;10.25;;;4.60;99.90;;;;;;2621988;46;20853;31
2022/10/20 03:19:18;;;;;;;13.65;8.32;;;4.30;99.90;;;;;;2603292;54;20883;31
2022/10/20 03:21:52;;;;;;;12.60;8.10;;;4.00;99.90;;;;;;2603360;54;20878;31
2022/10/20 03:24:26;;;;;;;11.80;7.97;;;4.20;99.90;;;;;;2603258;54;20783;31
2022/10/20 03:27:00;;;;;;;14.18;8.82;;;4.10;99.90;;;;;;2603333;54;20030;31
2022/10/20 03:29:34;;;;;;;12.65;8.05;;;4.40;99.90;;;;;;2603137;54;20805;31
2022/10/20 03:32:11;;;;;;;16.25;9.25;;;4.30;99.90;;;;;;2602879;54;20797;31
2022/10/20 03:34:43;;;;;;;17.85;10.77;;;4.00;99.90;;;;;;2701796;39;21062;31
2022/10/20 03:37:18;;;;;;;15.00;10.43;;;4.50;99.90;;;;;;2603191;54;20880;31
2022/10/20 03:39:52;;;;;;;17.63;9.38;;;3.80;99.90;;;;;;2603074;54;20108;31
2022/10/20 03:42:26;;;;;;;14.10;9.13;;;3.80;99.90;;;;;;2701557;39;20504;31
2022/10/20 03:45:00;;;;;;;14.70;8.85;;;4.00;99.90;;;;;;2603121;54;20026;31
2022/10/20 03:47:37;;;;;;;13.13;8.77;;;4.10;99.90;;;;;;2603252;54;20019;31
2022/10/20 03:50:12;;;;;;;15.30;8.47;;;4.10;99.90;;;;;;2621649;47;20030;31
2022/10/20 03:52:47;;;;;;;17.77;10.97;;;4.00;99.90;;;;;;2603108;54;20025;31
2022/10/20 03:55:20;;;;;;;19.02;13.05;;;4.20;99.90;;;;;;2603065;54;20026;31
2022/10/20 03:57:54;;;;;;;18.60;11.37;;;3.70;99.90;;;;;;2603210;54;20031;31
2022/10/20 04:00:29;;;;;;;16.13;10.32;;;3.90;99.90;;;;;;2603052;54;20030;31
2022/10/20 04:03:06;;;;;;;15.43;9.88;;;3.60;99.90;;;;;;2603017;54;20026;31
2022/10/20 04:05:40;;;;;;;14.40;9.27;;;3.80;99.90;;;;;;2603077;54;20026;31
2022/10/20 04:08:14;;;;;;;14.27;8.55;;;4.20;99.90;;;;;;2720212;39;20468;31
2022/10/20 04:10:48;;;;;;;16.98;11.05;;;3.60;99.90;;;;;;2702410;39;20505;31
2022/10/20 04:13:23;;;;;;;16.60;10.77;;;4.10;99.90;;;;;;2603552;54;21034;31
2022/10/20 04:15:58;;;;;;;16.42;10.82;;;3.50;99.90;;;;;;2603415;54;20093;31
2022/10/20 04:18:35;;;;;;;19.02;11.13;;;3.60;99.90;;;;;;2603783;54;20836;31
2022/10/20 04:21:09;;;;;;;16.77;11.13;;;3.60;99.90;;;;;;2603742;54;20061;31
2022/10/20 04:23:43;;;;;;;19.35;11.20;;;4.10;99.90;;;;;;2702108;39;20545;31
2022/10/20 04:26:18;;;;;;;21.98;10.50;;;3.90;99.90;;;;;;2702219;39;20595;31
2022/10/20 04:28:53;;;;;;;20.35;11.70;;;3.80;99.90;;;;;;2603654;54;20890;31
2022/10/20 04:31:25;;;;;;;19.15;11.75;;;3.80;99.90;;;;;;2603534;54;22438;31
2022/10/20 04:34:02;;;;;;;20.27;11.80;;;3.50;99.90;;;;;;2603757;54;20027;31
2022/10/20 04:36:36;;;;;;;22.70;11.38;;;3.50;99.90;;;;;;2622029;46;20806;31
2022/10/20 04:39:11;;;;;;;24.00;14.17;;;4.00;99.90;;;;;;2603609;54;20092;31
2022/10/20 04:41:45;;;;;;;21.80;13.15;;;3.70;99.90;;;;;;2603931;54;20026;31
2022/10/20 04:44:19;;;;;;;52.78;28.33;;;3.40;99.90;;;;;;2603535;54;20923;31
2022/10/20 04:46:55;;;;;;;38.50;22.20;;;3.60;99.90;;;;;;2603653;54;20887;31
2022/10/20 04:49:33;;;;;;;25.60;14.55;;;3.30;99.90;;;;;;2622351;46;20034;31
2022/10/20 04:52:07;;;;;;;15.77;10.83;;;3.30;99.90;;;;;;2603809;54;20052;31
2022/10/20 04:54:42;;;;;;;21.10;12.05;;;3.30;99.90;;;;;;2603764;54;20239;31
2022/10/20 04:57:16;;;;;;;20.20;11.40;;;3.30;99.90;;;;;;2622036;46;20037;31
2022/10/20 04:59:50;;;;;;;22.63;12.77;;;3.30;99.90;;;;;;2603981;54;21290;31
2022/10/20 05:02:25;;;;;;;21.70;13.13;;;3.30;99.90;;;;;;2702171;39;20624;31
2022/10/20 05:05:01;;;;;;;24.67;13.35;;;3.40;99.90;;;;;;2603519;54;20027;31
2022/10/20 05:07:36;;;;;;;22.60;13.30;;;3.60;99.90;;;;;;2603607;54;20038;31
2022/10/20 05:10:11;;;;;;;25.58;13.95;;;3.20;99.90;;;;;;2603635;54;20034;31
2022/10/20 05:12:46;;;;;;;26.75;14.55;;;3.10;99.90;;;;;;2702238;39;20388;31
2022/10/20 05:15:20;;;;;;;25.15;13.95;;;3.80;99.90;;;;;;2603506;54;20061;31
2022/10/20 05:17:54;;;;;;;22.88;13.07;;;3.70;99.90;;;;;;2603598;54;20094;31
2022/10/20 05:20:31;;;;;;;24.03;15.43;;;3.10;99.90;;;;;;2621679;46;20022;31
2022/10/20 05:23:14;;;;;;;27.83;14.50;;;3.10;99.90;;;;;;2603468;54;20959;31
2022/10/20 05:25:48;;;;;;;20.38;13.70;;;3.10;99.90;;;;;;2603654;54;20049;31
2022/10/20 05:28:23;;;;;;;20.60;14.00;;;3.10;99.90;;;;;;2603599;54;20018;31
2022/10/20 05:30:58;;;;;;;41.03;25.23;;;3.10;99.90;;;;;;2603753;54;21355;31
2022/10/20 05:33:36;;;;;;;;;;;3.10;99.90;;;;;;2603854;54;20849;31
2022/10/20 05:36:15;;;;;;;84.10;50.40;;;3.10;99.90;;;;;;2622170;46;19997;31
2022/10/20 05:38:55;;;;;;;107.75;65.57;;;3.80;99.90;;;;;;2603405;54;20813;31
2022/10/20 05:41:30;;;;;;;72.50;42.00;;;3.20;99.90;;;;;;2603693;54;20034;31
2022/10/20 05:44:13;;;;;;;34.45;19.45;;;3.60;99.90;;;;;;2603371;54;20113;31
2022/10/20 05:46:48;;;;;;;23.35;14.73;;;4.00;99.90;;;;;;2603473;54;20117;31
2022/10/20 05:49:23;;;;;;;32.20;19.53;;;4.00;99.90;;;;;;2603480;54;20803;31
2022/10/20 05:52:00;;;;;;;22.77;14.85;;;4.60;99.90;;;;;;2603500;54;20267;31
2022/10/20 05:54:35;;;;;;;23.40;14.00;;;4.20;99.90;;;;;;2603476;54;20030;31
2022/10/20 05:57:10;;;;;;;19.07;12.60;;;4.50;99.90;;;;;;2603543;54;20754;31
2022/10/20 05:59:45;;;;;;;29.40;16.05;;;4.70;99.90;;;;;;2603442;54;20258;31
2022/10/20 06:02:20;;;;;;;40.20;22.23;;;4.90;99.90;;;;;;2603074;54;20921;31
2022/10/20 06:04:55;;;;;;;23.48;15.40;;;5.10;99.90;;;;;;2622098;46;20031;31
2022/10/20 06:07:33;;;;;;;30.95;19.10;;;5.10;99.90;;;;;;2603483;54;20038;31
2022/10/20 06:10:08;;;;;;;57.50;34.00;;;5.00;99.90;;;;;;2603360;54;20093;31
2022/10/20 06:12:42;;;;;;;39.35;23.65;;;5.00;99.90;;;;;;2603385;54;20023;31
2022/10/20 06:15:17;;;;;;;28.40;21.15;;;4.90;99.90;;;;;;2603173;54;20114;31
2022/10/20 06:17:52;;;;;;;48.33;27.45;;;4.80;99.90;;;;;;2603530;54;19938;31
2022/10/20 06:20:27;;;;;;;36.93;23.77;;;4.70;99.90;;;;;;2603382;54;20038;31
2022/10/20 06:23:04;;;;;;;37.50;20.50;;;4.60;99.90;;;;;;2603275;54;20871;31
2022/10/20 06:25:38;;;;;;;28.75;17.95;;;4.70;99.90;;;;;;2603420;54;20081;31
2022/10/20 06:28:12;;;;;;;21.55;15.85;;;4.90;99.90;;;;;;2621904;46;20941;31
2022/10/20 06:30:46;;;;;;;22.65;15.00;;;5.10;99.90;;;;;;2603203;54;20965;31
2022/10/20 06:33:21;;;;;;;21.38;13.25;;;5.30;99.90;;;;;;2621296;46;20030;31
2022/10/20 06:35:56;;;;;;;20.80;14.60;;;6.10;99.90;;;;;;2603404;54;20022;31
2022/10/20 06:38:34;;;;;;;19.45;12.90;;;6.30;99.90;;;;;;2603422;54;20026;31
2022/10/20 06:41:09;;;;;;;18.17;13.20;;;6.90;99.90;;;;;;2603363;54;20030;31
2022/10/20 06:43:43;;;;;;;19.80;12.90;;;7.30;99.90;;;;;;2622113;46;20801;31
2022/10/20 06:46:19;;;;;;;18.52;11.75;;;7.90;99.90;;;;;;2621919;46;20022;31
2022/10/20 06:48:53;;;;;;;23.13;14.40;;;8.50;99.90;;;;;;2603237;54;20023;31
2022/10/20 06:51:32;;;;;;;17.60;11.87;;;9.60;99.90;;;;;;2701647;39;21385;31
2022/10/20 06:54:09;;;;;;;24.77;12.70;;;9.40;99.90;;;;;;2603301;54;20089;31
2022/10/20 06:56:44;;;;;;;19.17;12.67;;;9.90;99.90;;;;;;2603384;54;20052;31
2022/10/20 06:59:19;;;;;;;18.77;11.68;;;10.90;99.90;;;;;;2602989;54;21169;31
2022/10/20 07:01:54;;;;;;;15.43;10.73;;;10.60;99.90;;;;;;2621714;46;20162;31
2022/10/20 07:04:28;;;;;;;22.40;12.80;;;10.70;99.90;;;;;;2603085;54;20058;31
2022/10/20 07:07:03;;;;;;;14.63;9.45;;;10.80;99.90;;;;;;2603224;54;20045;31
2022/10/20 07:09:41;;;;;;;13.10;8.93;;;11.00;99.90;;;;;;2603487;54;19941;31
2022/10/20 07:12:15;;;;;;;20.58;13.20;;;11.20;99.90;;;;;;2621406;46;21142;31
2022/10/20 07:14:50;;;;;;;47.92;32.55;;;11.40;99.90;;;;;;2603382;54;20836;31
2022/10/20 07:17:25;;;;;;;58.78;44.50;;;11.50;99.90;;;;;;2603272;54;20951;31
2022/10/20 07:19:59;;;;;;;45.30;34.85;;;11.70;99.90;;;;;;2603038;54;20854;31
2022/10/20 07:22:35;;;;;;;29.30;24.05;;;11.60;99.90;;;;;;2603085;54;20034;31
2022/10/20 07:25:14;;;;;;;26.65;21.15;;;11.90;99.90;;;;;;2701689;39;21402;31
2022/10/20 07:27:47;;;;;;;20.80;11.80;;;12.20;99.90;;;;;;2602972;54;20821;31
2022/10/20 07:30:22;;;;;;;17.35;11.95;;;11.80;99.90;;;;;;2603106;54;20026;31
2022/10/20 07:32:56;;;;;;;14.73;10.90;;;11.90;99.90;;;;;;2720129;39;20474;31
2022/10/20 07:35:32;;;;;;;18.58;12.02;;;12.10;99.90;;;;;;2603127;54;20550;31
2022/10/20 07:38:06;;;;;;;17.75;11.15;;;12.20;99.90;;;;;;2602887;54;20843;31
2022/10/20 07:40:44;;;;;;;15.52;12.30;;;12.30;99.90;;;;;;2612664;46;20097;31
2022/10/20 07:43:18;;;;;;;19.42;12.85;;;12.70;99.90;;;;;;2603027;54;20027;31
2022/10/20 07:45:53;;;;;;;17.00;11.48;;;12.80;99.90;;;;;;2603912;54;20061;31
2022/10/20 07:48:28;;;;;;;21.90;11.47;;;12.70;99.90;;;;;;2604007;54;20026;31
2022/10/20 07:51:16;;;;;;;17.25;11.70;;;12.60;99.90;;;;;;2604034;54;20034;31
2022/10/20 07:53:51;;;;;;;16.20;10.68;;;12.90;99.90;;;;;;2603965;54;20046;31
2022/10/20 07:56:36;;;;;;;15.73;11.45;;;13.10;99.90;;;;;;2603962;54;20082;31
2022/10/20 07:59:12;;;;;;;16.42;10.27;;;13.00;99.90;;;;;;2603964;54;20945;31
2022/10/20 08:01:47;;;;;;;15.07;9.75;;;13.10;99.90;;;;;;2603939;54;20566;31
2022/10/20 08:04:21;;;;;;;16.23;9.05;;;13.50;99.90;;;;;;2603891;54;20089;31
2022/10/20 08:06:55;;;;;;;15.80;9.55;;;13.40;99.90;;;;;;2603695;54;20867;31
2022/10/20 08:09:29;;;;;;;13.30;9.55;;;13.50;99.90;;;;;;2622295;46;20127;31
2022/10/20 08:12:07;;;;;;;12.25;8.60;;;13.50;99.90;;;;;;2604002;54;20810;31
2022/10/20 08:14:43;;;;;;;13.23;9.05;;;13.70;99.90;;;;;;2622462;46;20031;31
2022/10/20 08:17:19;;;;;;;16.00;9.10;;;13.70;99.90;;;;;;2621775;46;20835;31
2022/10/20 08:19:53;;;;;;;16.73;8.40;;;13.90;99.90;;;;;;2606050;54;20034;31
2022/10/20 08:22:45;;;;;;;16.95;9.88;;;13.80;99.90;;;;;;2603549;54;20919;31
2022/10/20 08:25:18;;;;;;;13.50;8.70;;;13.80;99.90;;;;;;2603759;54;20661;31
2022/10/20 08:27:55;;;;;;;14.73;9.23;;;13.80;99.90;;;;;;2603861;54;20865;31
2022/10/20 08:30:29;;;;;;;13.75;8.98;;;13.50;99.90;;;;;;2603635;54;20038;31
2022/10/20 08:33:03;;;;;;;14.45;10.05;;;13.50;99.90;;;;;;2604063;54;20077;31
2022/10/20 08:35:38;;;;;;;12.82;8.88;;;13.50;99.90;;;;;;2603572;54;20826;31
2022/10/20 08:38:12;;;;;;;15.88;9.57;;;13.50;99.90;;;;;;2604441;46;20875;31
2022/10/20 08:40:46;;;;;;;15.80;9.35;;;13.80;99.90;;;;;;2603751;54;20078;31
2022/10/20 08:43:26;;;;;;;13.80;8.70;;;14.20;99.90;;;;;;2603539;54;20060;31
2022/10/20 08:46:01;;;;;;;13.45;10.05;;;13.40;99.90;;;;;;2603673;54;20541;31
2022/10/20 08:48:36;;;;;;;13.60;8.35;;;13.90;99.90;;;;;;2603609;54;20027;31
2022/10/20 08:51:14;;;;;;;11.23;8.40;;;13.70;99.90;;;;;;2603488;54;20890;31
2022/10/20 08:53:50;;;;;;;12.55;8.40;;;14.30;99.90;;;;;;2622333;46;20031;31
2022/10/20 08:56:25;;;;;;;14.00;8.57;;;14.00;99.90;;;;;;2621565;46;20810;31
2022/10/20 08:59:04;;;;;;;9.97;7.47;;;14.20;99.90;;;;;;2603575;54;20869;31
2022/10/20 09:01:39;;;;;;;12.50;7.15;;;14.30;99.90;;;;;;2603756;54;20825;31
2022/10/20 09:04:17;;;;;;;8.83;6.30;;;14.30;99.90;;;;;;2603507;54;20824;31
2022/10/20 09:06:53;;;;;;;10.25;5.50;;;14.40;99.90;;;;;;2603633;54;20882;31
2022/10/20 09:09:27;;;;;;;11.70;6.45;;;14.10;99.90;;;;;;2603839;54;20854;31
2022/10/20 09:12:05;;;;;;;9.93;6.47;;;14.40;99.90;;;;;;2603498;54;20812;31
2022/10/20 09:14:43;;;;;;;9.07;6.15;;;14.50;99.90;;;;;;2608974;46;20019;31
2022/10/20 09:17:18;;;;;;;11.50;5.85;;;14.30;99.90;;;;;;2603458;54;20910;31
2022/10/20 09:19:56;;;;;;;10.65;5.90;;;14.30;99.90;;;;;;2603803;54;20078;31
2022/10/20 09:22:31;;;;;;;10.15;5.18;;;14.30;99.90;;;;;;2603787;54;20022;31
2022/10/20 09:25:11;;;;;;;8.30;5.50;;;14.40;99.90;;;;;;2603474;54;20924;31
2022/10/20 09:27:46;;;;;;;9.02;5.13;;;14.30;99.90;;;;;;2603436;54;20975;31
2022/10/20 09:30:25;;;;;;;7.80;5.38;;;14.20;99.90;;;;;;2603327;54;20113;31
2022/10/20 09:32:58;;;;;;;7.95;5.30;;;14.20;99.90;;;;;;2603532;54;20077;31
2022/10/20 09:35:33;;;;;;;9.02;5.47;;;14.20;99.90;;;;;;2603681;54;20596;31
2022/10/20 09:38:18;;;;;;;11.80;4.80;;;14.60;99.90;;;;;;2603607;54;19950;31
2022/10/20 09:41:00;;;;;;;7.05;4.65;;;14.50;99.90;;;;;;2603546;54;20813;31
2022/10/20 09:43:35;;;;;;;7.18;4.43;;;14.60;99.90;;;;;;2603474;54;20030;31
2022/10/20 09:46:12;;;;;;;10.07;4.90;;;14.50;99.90;;;;;;2603539;54;19989;31
2022/10/20 09:48:45;;;;;;;6.63;4.47;;;14.50;99.90;;;;;;2603517;54;19930;31
2022/10/20 09:51:21;;;;;;;7.70;5.10;;;14.40;99.90;;;;;;2702097;39;20478;31
2022/10/20 09:53:58;;;;;;;11.63;6.35;;;14.30;99.90;;;;;;2603458;54;20060;31
2022/10/20 09:56:33;;;;;;;8.82;4.80;;;14.30;99.90;;;;;;2603509;54;20045;31
2022/10/20 09:59:08;;;;;;;6.20;4.45;;;14.40;99.90;;;;;;2604054;46;20813;31
2022/10/20 10:01:57;;;;;;;6.57;4.95;;;14.30;99.90;;;;;;2603190;54;20290;31
2022/10/20 10:04:33;;;;;;;10.10;5.10;;;14.40;99.90;;;;;;2603721;54;20908;31
2022/10/20 10:07:08;;;;;;;7.25;4.55;;;14.60;99.90;;;;;;2603499;54;20022;31
2022/10/20 10:09:43;;;;;;;10.43;4.03;;;14.60;99.90;;;;;;2603413;54;20042;31
2022/10/20 10:12:19;;;;;;;7.20;4.05;;;14.60;99.90;;;;;;2603380;54;21534;31
2022/10/20 10:14:54;;;;;;;8.13;3.30;;;14.50;99.90;;;;;;2603598;54;20023;31
2022/10/20 10:17:35;;;;;;;7.20;3.67;;;14.60;99.90;;;;;;2621916;46;20026;31
2022/10/20 10:20:34;;;;;;;9.13;4.30;;;14.60;99.90;;;;;;2603467;54;20894;31
2022/10/20 10:23:25;;;;;;;10.75;4.45;;;14.60;99.90;;;;;;2622076;46;20815;31
2022/10/20 10:25:59;;;;;;;7.50;3.50;;;14.50;99.90;;;;;;2603148;54;20904;31
2022/10/20 10:28:37;;;;;;;4.93;2.35;;;14.30;99.90;;;;;;2603123;54;20949;31
2022/10/20 10:31:25;;;;;;;3.97;2.20;;;14.30;99.90;;;;;;2720647;39;20452;31
2022/10/20 10:34:23;;;;;;;6.68;2.42;;;14.10;99.90;;;;;;2622106;46;20026;31
2022/10/20 10:36:57;;;;;;;3.58;1.60;;;14.10;99.90;;;;;;2603549;54;20946;31
2022/10/20 10:39:32;;;;;;;6.10;2.22;;;14.10;99.90;;;;;;2603112;54;20018;31
2022/10/20 10:42:14;;;;;;;4.50;2.30;;;14.30;99.90;;;;;;2603136;54;20879;31
2022/10/20 10:44:54;;;;;;;5.85;2.08;;;13.90;99.90;;;;;;2622259;46;20875;31
2022/10/20 10:47:38;;;;;;;6.40;2.70;;;14.00;99.90;;;;;;2603257;54;20944;31
2022/10/20 10:50:28;;;;;;;4.30;2.40;;;14.00;99.90;;;;;;2603538;54;20032;31
2022/10/20 10:53:10;;;;;;;6.07;2.60;;;14.20;99.90;;;;;;2603312;54;20049;31
2022/10/20 10:55:50;;;;;;;5.50;2.55;;;13.70;99.90;;;;;;2603346;54;20029;31
2022/10/20 10:58:52;;;;;;;4.72;2.65;;;13.70;99.90;;;;;;2603205;54;20026;31
2022/10/20 11:01:36;;;;;;;5.00;2.70;;;13.60;99.90;;;;;;2602993;54;20022;31
2022/10/20 11:04:40;;;;;;;5.03;2.38;;;13.50;99.90;;;;;;2621819;46;20905;31
2022/10/20 11:07:22;;;;;;;4.13;2.50;;;13.50;99.90;;;;;;2603226;54;20862;31
2022/10/20 11:10:03;;;;;;;6.40;3.50;;;13.50;99.90;;;;;;2603231;54;20884;31
2022/10/20 11:12:58;;;;;;;5.60;2.75;;;13.40;99.90;;;;;;2603383;54;20033;31
2022/10/20 11:15:41;;;;;;;6.45;2.30;;;13.50;99.90;;;;;;2603310;54;20803;31
2022/10/20 11:18:18;;;;;;;5.65;2.30;;;13.40;99.90;;;;;;2602932;54;20081;31
2022/10/20 11:20:56;;;;;;;4.88;2.28;;;13.40;99.90;;;;;;2621633;46;20141;31
2022/10/20 11:23:59;;;;;;;6.75;2.40;;;13.40;99.90;;;;;;2603129;54;19943;31
2022/10/20 11:26:33;;;;;;;7.07;2.58;;;13.40;99.90;;;;;;2603083;54;20896;31
2022/10/20 11:29:11;;;;;;;6.32;2.60;;;13.30;99.90;;;;;;2603210;54;20873;31
2022/10/20 11:31:50;;;;;;;6.63;2.35;;;13.50;99.90;;;;;;2603006;54;20027;31
2022/10/20 11:34:29;;;;;;;6.57;2.67;;;13.10;99.90;;;;;;2603022;54;20893;31
2022/10/20 11:37:08;;;;;;;5.75;2.10;;;13.10;99.90;;;;;;2603161;54;20031;31
2022/10/20 11:39:49;;;;;;;8.10;2.83;;;13.00;99.90;;;;;;2603158;54;20822;31
2022/10/20 11:42:27;;;;;;;9.40;3.23;;;12.90;99.90;;;;;;2630483;31;22494;31
2022/10/20 11:45:03;;;;;;;5.90;3.42;;;12.90;99.90;;;;;;2603135;54;21056;31
2022/10/20 11:47:39;;;;;;;6.15;2.70;;;12.90;99.90;;;;;;2603026;54;20932;31
2022/10/20 11:50:21;;;;;;;3.55;1.80;;;13.00;99.90;;;;;;2602989;54;20924;31
2022/10/20 11:53:11;;;;;;;4.00;2.45;;;13.00;99.90;;;;;;2603047;54;20934;31
2022/10/20 11:56:16;;;;;;;3.85;2.25;;;12.90;99.90;;;;;;2701644;39;20488;31
2022/10/20 11:59:13;;;;;;;5.82;2.50;;;12.90;99.90;;;;;;2621046;47;20593;31
2022/10/20 12:02:13;;;;;;;6.00;2.00;;;12.90;99.90;;;;;;2603123;54;20914;31
2022/10/20 12:04:57;;;;;;;4.93;2.45;;;12.90;99.90;;;;;;2602805;54;20109;31
2022/10/20 12:07:59;;;;;;;4.30;1.80;;;12.80;99.90;;;;;;2602619;54;20030;31
2022/10/20 12:10:59;;;;;;;5.22;2.97;;;12.80;99.90;;;;;;2620945;47;20049;31
2022/10/20 12:13:40;;;;;;;5.65;2.35;;;12.80;99.90;;;;;;2602887;54;20027;31
2022/10/20 12:16:15;;;;;;;5.65;2.40;;;12.80;99.90;;;;;;2602916;54;20808;31
2022/10/20 12:19:08;;;;;;;5.45;2.10;;;12.70;99.90;;;;;;2621808;47;20909;31
2022/10/20 12:21:57;;;;;;;5.65;2.45;;;12.70;99.90;;;;;;2603007;54;20861;31
2022/10/20 12:24:34;;;;;;;5.35;2.50;;;12.70;99.90;;;;;;2602821;54;20033;31
2022/10/20 12:27:21;;;;;;;5.40;2.45;;;12.70;99.90;;;;;;2603001;54;20029;31
2022/10/20 12:30:01;;;;;;;5.05;2.70;;;12.70;99.90;;;;;;2602941;54;20973;31
2022/10/20 12:32:56;;;;;;;6.68;3.05;;;12.70;99.90;;;;;;2603532;54;20109;31
2022/10/20 12:35:54;;;;;;;8.27;3.45;;;13.10;99.90;;;;;;2603572;54;20971;31
2022/10/20 12:38:27;;;;;;;4.05;2.50;;;12.70;99.90;;;;;;2603665;54;20145;31
2022/10/20 12:41:05;;;;;;;6.82;2.85;;;12.70;99.90;;;;;;2603415;54;20889;31
2022/10/20 12:43:50;;;;;;;5.45;2.65;;;12.70;99.90;;;;;;2603731;54;20027;31
2022/10/20 12:46:30;;;;;;;4.75;2.50;;;12.70;99.90;;;;;;2603619;54;20022;31
2022/10/20 12:49:06;;;;;;;5.05;2.80;;;12.60;99.90;;;;;;2603908;54;20153;31
2022/10/20 12:51:51;;;;;;;6.22;2.55;;;12.90;99.90;;;;;;2603502;54;20092;31
2022/10/20 12:54:28;;;;;;;5.65;2.83;;;12.90;99.90;;;;;;2603660;54;20038;31
2022/10/20 12:57:04;;;;;;;7.50;2.75;;;12.60;99.90;;;;;;2603504;54;20921;31
2022/10/20 12:59:42;;;;;;;4.88;2.67;;;12.90;99.90;;;;;;2603450;54;20026;31
2022/10/20 13:02:56;;;;;;;8.73;3.03;;;12.50;99.90;;;;;;2603530;54;20093;31
2022/10/20 13:05:46;;;;;;;4.47;2.40;;;12.50;99.90;;;;;;2603520;54;20049;31
2022/10/20 13:08:26;;;;;;;6.32;3.00;;;12.50;99.90;;;;;;2603336;54;20949;31
2022/10/20 13:11:31;;;;;;;7.38;3.13;;;12.50;99.90;;;;;;2622412;46;20819;31
2022/10/20 13:14:23;;;;;;;9.02;3.40;;;12.50;99.90;;;;;;2603477;54;20027;31
2022/10/20 13:17:13;;;;;;;9.57;3.03;;;12.50;99.90;;;;;;2603772;54;19935;31
2022/10/20 13:19:49;;;;;;;7.63;3.03;;;12.50;99.90;;;;;;2603555;54;20026;31
2022/10/20 13:22:38;;;;;;;6.68;3.25;;;12.50;99.90;;;;;;2603707;54;20042;31
2022/10/20 13:25:20;;;;;;;7.35;3.40;;;12.50;99.90;;;;;;2603491;54;21410;31
2022/10/20 13:27:54;;;;;;;6.68;3.72;;;12.50;99.90;;;;;;2603628;54;20026;31
2022/10/20 13:30:29;;;;;;;7.05;3.88;;;12.50;99.90;;;;;;2621995;46;20133;31
2022/10/20 13:33:09;;;;;;;6.85;3.35;;;12.50;99.90;;;;;;2617318;46;20023;31
2022/10/20 13:36:05;;;;;;;6.78;2.72;;;12.50;99.90;;;;;;2603578;54;20856;31
2022/10/20 13:38:40;;;;;;;;;;;12.60;99.90;;;;;;2603911;54;20022;31
2022/10/20 13:41:17;;;;;;;6.75;2.90;;;12.50;99.90;;;;;;2603498;54;19935;31
2022/10/20 13:43:55;;;;;;;7.90;3.08;;;12.50;99.90;;;;;;2603219;54;20065;31
2022/10/20 13:46:42;;;;;;;7.03;3.10;;;12.50;99.90;;;;;;2603466;54;20046;31
2022/10/20 13:49:35;;;;;;;6.40;3.20;;;12.50;99.90;;;;;;2603388;54;20057;31